createdAt,value
2023-03-24T00:01:51.050Z,13.20
2023-03-24T00:04:17.794Z,13.20
2023-03-24T00:06:44.841Z,13.20
2023-03-24T00:09:11.723Z,13.30
2023-03-24T00:11:38.481Z,13.30
2023-03-24T00:14:05.159Z,13.40
2023-03-24T00:16:34.692Z,13.40
2023-03-24T00:19:01.428Z,13.40
2023-03-24T00:21:28.169Z,13.50
2023-03-24T00:23:55.755Z,13.60
2023-03-24T00:26:25.059Z,13.60
2023-03-24T00:28:52.895Z,13.70
2023-03-24T00:31:19.665Z,13.80
2023-03-24T00:33:50.910Z,13.80
2023-03-24T00:36:20.448Z,13.90
2023-03-24T00:38:50.290Z,13.90
2023-03-24T00:41:19.782Z,14.00
2023-03-24T00:43:47.182Z,14.00
2023-03-24T00:46:27.302Z,14.10
2023-03-24T00:49:02.506Z,14.20
2023-03-24T00:51:30.968Z,14.30
2023-03-24T00:53:57.988Z,14.40
2023-03-24T00:56:26.798Z,14.40
2023-03-24T00:58:54.354Z,14.50
2023-03-24T01:01:22.196Z,14.50
2023-03-24T01:03:50.803Z,14.50
2023-03-24T01:06:18.434Z,14.50
2023-03-24T01:08:45.865Z,14.50
2023-03-24T01:11:12.950Z,14.40
2023-03-24T01:13:41.026Z,14.40
2023-03-24T01:16:08.005Z,14.40
2023-03-24T01:18:35.061Z,14.40
2023-03-24T01:21:01.747Z,14.40
2023-03-24T01:23:31.088Z,14.40
2023-03-24T01:25:57.808Z,14.40
2023-03-24T01:28:25.379Z,14.40
2023-03-24T01:30:52.582Z,14.40
2023-03-24T01:33:19.277Z,14.40
2023-03-24T01:35:46.024Z,14.40
2023-03-24T01:38:13.491Z,14.30
2023-03-24T01:40:42.200Z,14.40
2023-03-24T01:43:16.614Z,14.40
2023-03-24T01:45:49.330Z,14.40
2023-03-24T01:48:18.396Z,14.40
2023-03-24T01:50:47.969Z,14.40
2023-03-24T01:53:15.457Z,14.50
2023-03-24T01:55:43.532Z,14.50
2023-03-24T01:58:10.397Z,14.60
2023-03-24T02:00:38.118Z,14.50
2023-03-24T02:03:07.419Z,14.40
2023-03-24T02:05:35.762Z,14.30
2023-03-24T02:08:13.273Z,14.10
2023-03-24T02:10:40.136Z,14.00
2023-03-24T02:13:07.716Z,13.90
2023-03-24T02:15:36.842Z,13.90
2023-03-24T02:18:06.398Z,13.90
2023-03-24T02:20:52.058Z,14.00
2023-03-24T02:23:37.219Z,14.10
2023-03-24T02:26:05.784Z,14.30
2023-03-24T02:28:46.702Z,14.40
2023-03-24T02:31:13.317Z,14.50
2023-03-24T02:33:43.171Z,14.60
2023-03-24T02:36:27.905Z,14.70
2023-03-24T02:39:13.245Z,14.80
2023-03-24T02:41:51.594Z,15.00
2023-03-24T02:44:30.766Z,15.10
2023-03-24T02:46:57.508Z,15.20
2023-03-24T02:49:34.978Z,15.20
2023-03-24T02:52:05.266Z,15.30
2023-03-24T02:54:43.876Z,15.30
2023-03-24T02:57:16.720Z,15.40
2023-03-24T02:59:46.069Z,15.40
2023-03-24T03:02:16.958Z,15.40
2023-03-24T03:04:46.494Z,15.40
2023-03-24T03:07:16.911Z,15.50
2023-03-24T03:09:47.517Z,15.50
2023-03-24T03:12:14.793Z,15.40
2023-03-24T03:14:47.404Z,15.30
2023-03-24T03:17:19.490Z,15.40
2023-03-24T03:20:02.833Z,15.40
2023-03-24T03:22:32.394Z,15.40
2023-03-24T03:25:01.340Z,15.40
2023-03-24T03:27:39.343Z,15.40
2023-03-24T03:30:09.088Z,15.40
2023-03-24T03:32:39.183Z,15.40
2023-03-24T03:35:12.148Z,15.40
2023-03-24T03:37:51.297Z,15.40
2023-03-24T03:40:21.282Z,15.30
2023-03-24T03:42:48.194Z,15.30
2023-03-24T03:45:15.021Z,15.30
2023-03-24T03:47:42.003Z,15.30
2023-03-24T03:50:09.170Z,15.20
2023-03-24T03:52:39.222Z,15.30
2023-03-24T03:55:06.898Z,15.30
2023-03-24T03:57:34.678Z,15.20
2023-03-24T04:00:12.167Z,15.20
2023-03-24T04:03:08.335Z,15.20
2023-03-24T04:05:42.520Z,15.10
2023-03-24T04:08:28.180Z,15.00
2023-03-24T04:10:57.630Z,14.90
2023-03-24T04:13:27.207Z,14.90
2023-03-24T04:16:08.996Z,14.90
2023-03-24T04:18:43.003Z,14.90
2023-03-24T04:21:13.016Z,14.90
2023-03-24T04:23:54.311Z,15.00
2023-03-24T04:26:26.277Z,15.00
2023-03-24T04:29:17.790Z,15.10
2023-03-24T04:31:49.365Z,15.20
2023-03-24T04:34:20.855Z,15.20
2023-03-24T04:36:57.156Z,15.30
2023-03-24T04:39:28.198Z,15.30
2023-03-24T04:41:56.782Z,15.30
2023-03-24T04:44:24.216Z,15.30
2023-03-24T04:46:52.143Z,15.40
2023-03-24T04:49:25.055Z,15.40
2023-03-24T04:51:52.206Z,15.30
2023-03-24T04:54:19.633Z,15.40
2023-03-24T04:56:47.962Z,15.40
2023-03-24T04:59:15.443Z,15.40
2023-03-24T05:01:50.014Z,15.40
2023-03-24T05:04:21.078Z,15.40
2023-03-24T05:06:49.711Z,15.40
2023-03-24T05:09:17.955Z,15.40
2023-03-24T05:11:45.019Z,15.40
2023-03-24T05:14:11.631Z,15.40
2023-03-24T05:16:38.370Z,15.30
2023-03-24T05:19:05.418Z,15.30
2023-03-24T05:21:33.613Z,15.30
2023-03-24T05:24:00.760Z,15.20
2023-03-24T05:26:27.434Z,15.20
2023-03-24T05:28:54.381Z,15.20
2023-03-24T05:31:21.426Z,15.10
2023-03-24T05:33:48.680Z,15.10
2023-03-24T05:36:15.763Z,15.10
2023-03-24T05:38:42.503Z,15.10
2023-03-24T05:41:09.186Z,15.00
2023-03-24T05:43:35.870Z,15.00
2023-03-24T05:46:02.704Z,15.00
2023-03-24T05:48:29.388Z,14.90
2023-03-24T05:50:56.286Z,14.90
2023-03-24T05:53:22.986Z,14.70
2023-03-24T05:55:49.716Z,14.60
2023-03-24T05:58:16.474Z,14.40
2023-03-24T06:00:43.150Z,14.30
2023-03-24T06:03:09.916Z,14.30
2023-03-24T06:05:36.613Z,14.10
2023-03-24T06:08:03.880Z,13.90
2023-03-24T06:10:30.508Z,13.70
2023-03-24T06:12:57.124Z,13.70
2023-03-24T06:15:27.739Z,13.70
2023-03-24T06:17:55.200Z,13.70
2023-03-24T06:20:22.156Z,13.70
2023-03-24T06:22:49.763Z,13.60
2023-03-24T06:25:18.015Z,13.60
2023-03-24T06:27:47.748Z,13.70
2023-03-24T06:30:15.689Z,13.60
2023-03-24T06:32:43.537Z,13.60
2023-03-24T06:35:22.355Z,13.60
2023-03-24T06:37:49.016Z,13.70
2023-03-24T06:40:17.479Z,13.70
2023-03-24T06:42:44.212Z,13.70
2023-03-24T06:45:11.116Z,13.70
2023-03-24T06:47:37.901Z,13.70
2023-03-24T06:50:05.597Z,13.70
2023-03-24T06:52:32.278Z,13.70
2023-03-24T06:54:58.972Z,13.70
2023-03-24T06:57:26.062Z,13.60
2023-03-24T06:59:53.351Z,13.60
2023-03-24T07:02:20.471Z,13.60
2023-03-24T07:04:47.483Z,13.60
2023-03-24T07:07:41.475Z,13.60
2023-03-24T07:10:01.009Z,13.60
2023-03-24T07:12:28.306Z,13.60
2023-03-24T07:14:55.744Z,13.60
2023-03-24T07:17:23.666Z,13.60
2023-03-24T07:19:51.027Z,13.60
2023-03-24T07:22:17.738Z,13.60
2023-03-24T07:24:44.354Z,13.60
2023-03-24T07:27:11.015Z,13.60
2023-03-24T07:29:37.617Z,13.70
2023-03-24T07:32:04.435Z,13.60
2023-03-24T07:34:31.979Z,13.60
2023-03-24T07:37:00.713Z,13.60
2023-03-24T07:39:28.553Z,13.50
2023-03-24T07:41:55.358Z,13.50
2023-03-24T07:44:22.782Z,13.30
2023-03-24T07:46:49.547Z,13.20
2023-03-24T07:49:19.710Z,13.10
2023-03-24T07:51:46.891Z,13.10
2023-03-24T07:54:13.514Z,13.00
2023-03-24T07:56:40.537Z,13.00
2023-03-24T07:59:09.825Z,13.00
2023-03-24T08:01:37.105Z,13.10
2023-03-24T08:04:04.819Z,13.00
2023-03-24T08:06:31.590Z,12.90
2023-03-24T08:08:58.285Z,12.90
2023-03-24T08:11:24.919Z,12.80
2023-03-24T08:13:51.533Z,12.90
2023-03-24T08:16:18.213Z,12.90
2023-03-24T08:18:44.984Z,12.90
2023-03-24T08:21:11.638Z,13.00
2023-03-24T08:23:38.333Z,13.00
2023-03-24T08:26:05.020Z,13.10
2023-03-24T08:28:31.781Z,13.20
2023-03-24T08:30:58.697Z,13.20
2023-03-24T08:33:25.376Z,13.10
2023-03-24T08:35:57.462Z,13.10
2023-03-24T08:38:30.721Z,13.20
2023-03-24T08:40:58.623Z,13.30
2023-03-24T08:43:25.572Z,13.20
2023-03-24T08:45:52.233Z,13.30
2023-03-24T08:48:19.048Z,13.40
2023-03-24T08:50:46.200Z,13.40
2023-03-24T08:53:12.943Z,13.50
2023-03-24T08:55:43.047Z,13.60
2023-03-24T08:58:13.616Z,13.60
2023-03-24T09:00:41.008Z,13.50
2023-03-24T09:03:07.770Z,13.40
2023-03-24T09:05:44.587Z,13.40
2023-03-24T09:08:12.452Z,13.40
2023-03-24T09:10:39.639Z,13.40
2023-03-24T09:13:06.357Z,13.40
2023-03-24T09:15:33.411Z,13.50
2023-03-24T09:18:00.834Z,13.50
2023-03-24T09:20:30.338Z,13.80
2023-03-24T09:22:57.081Z,13.90
2023-03-24T09:25:24.016Z,13.90
2023-03-24T09:27:50.870Z,14.00
2023-03-24T09:30:17.933Z,14.20
2023-03-24T09:32:45.604Z,14.10
2023-03-24T09:35:12.569Z,14.20
2023-03-24T09:37:40.598Z,14.30
2023-03-24T09:40:07.861Z,14.30
2023-03-24T09:42:36.342Z,14.40
2023-03-24T09:45:17.020Z,14.60
2023-03-24T09:48:04.894Z,14.60
2023-03-24T09:50:37.566Z,14.50
2023-03-24T09:53:21.352Z,14.80
2023-03-24T09:55:48.948Z,15.20
2023-03-24T09:58:15.918Z,15.40
2023-03-24T10:00:43.270Z,15.50
2023-03-24T10:03:19.445Z,15.90
2023-03-24T10:06:13.093Z,16.00
2023-03-24T10:09:06.140Z,15.90
2023-03-24T10:11:41.671Z,15.90
2023-03-24T10:14:08.461Z,15.90
2023-03-24T10:16:45.844Z,16.00
2023-03-24T10:19:40.192Z,16.30
2023-03-24T10:22:16.064Z,16.40
2023-03-24T10:24:48.259Z,16.60
2023-03-24T10:27:25.012Z,17.20
2023-03-24T10:29:54.488Z,18.10
2023-03-24T10:32:23.904Z,18.40
2023-03-24T10:34:56.560Z,18.20
2023-03-24T10:37:23.597Z,17.90
2023-03-24T10:39:51.538Z,17.70
2023-03-24T10:42:22.157Z,17.40
2023-03-24T10:44:49.732Z,17.30
2023-03-24T10:47:18.504Z,17.30
2023-03-24T10:49:54.063Z,17.40
2023-03-24T10:52:20.810Z,17.30
2023-03-24T10:54:58.400Z,17.10
2023-03-24T10:57:26.274Z,16.90
2023-03-24T10:59:56.058Z,16.80
2023-03-24T11:02:32.653Z,16.50
2023-03-24T11:04:59.408Z,16.40
2023-03-24T11:07:31.269Z,16.10
2023-03-24T11:10:05.262Z,16.10
2023-03-24T11:12:33.140Z,16.10
2023-03-24T11:15:22.399Z,16.20
2023-03-24T11:17:53.675Z,16.30
2023-03-24T11:20:24.395Z,16.20
2023-03-24T11:22:57.370Z,16.20
2023-03-24T11:25:26.648Z,16.20
2023-03-24T11:27:57.417Z,16.20
2023-03-24T11:30:24.419Z,16.30
2023-03-24T11:32:55.000Z,16.20
2023-03-24T11:35:23.271Z,16.40
2023-03-24T11:37:56.164Z,16.60
2023-03-24T11:40:24.140Z,16.50
2023-03-24T11:43:01.174Z,16.50
2023-03-24T11:45:28.188Z,16.50
2023-03-24T11:47:58.930Z,16.60
2023-03-24T11:50:36.181Z,16.60
2023-03-24T11:53:07.770Z,16.60
2023-03-24T11:55:36.846Z,16.50
2023-03-24T11:58:25.028Z,16.50
2023-03-24T12:01:04.238Z,16.70
2023-03-24T12:03:53.180Z,16.40
2023-03-24T12:06:20.043Z,16.50
2023-03-24T12:08:46.904Z,16.60
2023-03-24T12:11:20.319Z,16.40
2023-03-24T12:13:51.826Z,16.40
2023-03-24T12:16:21.502Z,16.30
2023-03-24T12:18:48.294Z,16.40
2023-03-24T12:21:18.009Z,16.30
2023-03-24T12:23:50.784Z,16.20
2023-03-24T12:26:22.967Z,16.30
2023-03-24T12:28:57.086Z,16.30
2023-03-24T12:31:42.098Z,16.10
2023-03-24T12:34:08.745Z,16.10
2023-03-24T12:36:37.102Z,16.00
2023-03-24T12:39:12.353Z,16.10
2023-03-24T12:41:39.024Z,16.00
2023-03-24T12:44:44.561Z,15.80
2023-03-24T12:47:14.176Z,15.80
2023-03-24T12:49:46.907Z,15.80
2023-03-24T12:52:25.571Z,15.80
2023-03-24T12:55:04.721Z,15.80
2023-03-24T12:57:37.995Z,15.80
2023-03-24T13:00:12.679Z,15.80
2023-03-24T13:02:42.575Z,15.90
2023-03-24T13:05:16.648Z,15.90
2023-03-24T13:07:43.994Z,15.80
2023-03-24T13:10:40.776Z,15.90
2023-03-24T13:13:17.133Z,15.80
2023-03-24T13:16:04.189Z,15.60
2023-03-24T13:18:41.688Z,15.50
2023-03-24T13:21:14.186Z,15.50
2023-03-24T13:23:47.270Z,15.60
2023-03-24T13:26:17.138Z,15.70
2023-03-24T13:28:58.091Z,15.70
2023-03-24T13:31:25.489Z,15.80
2023-03-24T13:33:53.115Z,15.90
2023-03-24T13:36:31.641Z,15.90
2023-03-24T13:39:01.585Z,15.70
2023-03-24T13:41:32.299Z,15.80
2023-03-24T13:44:28.450Z,15.80
2023-03-24T13:47:13.842Z,15.80
2023-03-24T13:49:42.279Z,15.70
2023-03-24T13:52:31.142Z,15.50
2023-03-24T13:54:59.736Z,15.60
2023-03-24T13:57:26.896Z,15.60
2023-03-24T14:00:08.525Z,15.60
2023-03-24T14:02:42.673Z,15.50
2023-03-24T14:05:30.149Z,15.30
2023-03-24T14:08:05.931Z,15.20
2023-03-24T14:10:45.841Z,15.10
2023-03-24T14:13:12.515Z,15.00
2023-03-24T14:15:46.419Z,14.90
2023-03-24T14:18:22.683Z,14.80
2023-03-24T14:20:55.846Z,14.70
2023-03-24T14:23:31.824Z,14.70
2023-03-24T14:25:58.713Z,14.70
2023-03-24T14:28:31.917Z,14.70
2023-03-24T14:31:03.405Z,14.70
2023-03-24T14:33:30.620Z,14.80
2023-03-24T14:36:11.994Z,14.80
2023-03-24T14:38:41.255Z,14.80
2023-03-24T14:41:12.909Z,14.80
2023-03-24T14:43:39.591Z,14.80
2023-03-24T14:46:25.118Z,14.80
2023-03-24T14:49:15.531Z,14.70
2023-03-24T14:51:50.828Z,14.70
2023-03-24T14:54:29.787Z,14.70
2023-03-24T14:56:57.899Z,14.70
2023-03-24T14:59:27.453Z,14.70
2023-03-24T15:01:59.385Z,14.50
2023-03-24T15:04:26.201Z,14.40
2023-03-24T15:06:52.818Z,14.30
2023-03-24T15:09:19.470Z,14.20
2023-03-24T15:11:47.276Z,14.20
2023-03-24T15:14:22.413Z,14.20
2023-03-24T15:16:53.762Z,14.10
2023-03-24T15:19:21.747Z,14.10
2023-03-24T15:21:49.650Z,14.20
2023-03-24T15:24:22.360Z,14.10
2023-03-24T15:26:49.644Z,14.20
2023-03-24T15:29:16.383Z,14.20
2023-03-24T15:31:43.274Z,14.20
2023-03-24T15:34:25.527Z,14.10
2023-03-24T15:36:57.371Z,14.10
2023-03-24T15:39:28.777Z,14.20
2023-03-24T15:41:55.442Z,14.10
2023-03-24T15:44:25.310Z,14.10
2023-03-24T15:46:54.511Z,14.10
2023-03-24T15:49:23.765Z,14.00
2023-03-24T15:51:51.774Z,14.00
2023-03-24T15:54:21.434Z,14.00
2023-03-24T15:57:12.556Z,13.80
2023-03-24T15:59:42.801Z,13.70
2023-03-24T16:02:29.932Z,13.60
2023-03-24T16:05:09.905Z,13.70
2023-03-24T16:07:37.669Z,13.60
2023-03-24T16:10:06.141Z,13.50
2023-03-24T16:12:34.112Z,13.50
2023-03-24T16:15:01.083Z,13.40
2023-03-24T16:17:27.943Z,13.40
2023-03-24T16:19:54.580Z,13.40
2023-03-24T16:22:21.297Z,13.30
2023-03-24T16:24:48.214Z,13.30
2023-03-24T16:27:15.571Z,13.00
2023-03-24T16:29:43.321Z,13.00
2023-03-24T16:32:10.174Z,13.00
2023-03-24T16:34:37.185Z,12.90
2023-03-24T16:37:04.375Z,12.90
2023-03-24T16:39:31.205Z,12.80
2023-03-24T16:41:57.820Z,12.70
2023-03-24T16:44:24.856Z,12.50
2023-03-24T16:46:53.708Z,12.50
2023-03-24T16:49:21.092Z,12.40
2023-03-24T16:51:47.988Z,12.50
2023-03-24T16:54:14.774Z,12.50
2023-03-24T16:56:41.378Z,12.60
2023-03-24T16:59:09.074Z,12.70
2023-03-24T17:01:37.199Z,12.80
2023-03-24T17:04:09.707Z,12.90
2023-03-24T17:06:37.794Z,13.00
2023-03-24T17:09:05.986Z,12.90
2023-03-24T17:11:34.367Z,13.00
2023-03-24T17:14:10.119Z,13.00
2023-03-24T17:16:38.329Z,13.00
2023-03-24T17:19:06.093Z,13.00
2023-03-24T17:21:34.198Z,13.00
2023-03-24T17:24:01.404Z,12.90
2023-03-24T17:26:29.224Z,12.80
2023-03-24T17:28:57.052Z,12.70
2023-03-24T17:31:23.790Z,12.60
2023-03-24T17:33:50.517Z,12.50
2023-03-24T17:36:17.340Z,12.50
2023-03-24T17:38:44.862Z,12.50
2023-03-24T17:41:11.575Z,12.40
2023-03-24T17:43:38.293Z,12.30
2023-03-24T17:46:05.296Z,12.20
2023-03-24T17:48:32.130Z,12.20
2023-03-24T17:50:58.919Z,12.10
2023-03-24T17:53:28.520Z,12.10
2023-03-24T17:55:57.178Z,12.10
2023-03-24T17:58:24.252Z,12.00
2023-03-24T18:00:51.418Z,12.00
2023-03-24T18:03:18.613Z,11.90
2023-03-24T18:05:45.424Z,11.80
2023-03-24T18:08:12.372Z,11.90
2023-03-24T18:10:39.103Z,11.90
2023-03-24T18:13:06.349Z,11.90
2023-03-24T18:15:33.667Z,11.80
2023-03-24T18:18:00.408Z,11.80
2023-03-24T18:20:27.526Z,11.70
2023-03-24T18:22:54.296Z,11.70
2023-03-24T18:25:21.166Z,11.50
2023-03-24T18:27:47.839Z,11.60
2023-03-24T18:30:14.578Z,11.60
2023-03-24T18:32:41.396Z,11.50
2023-03-24T18:35:09.156Z,11.50
2023-03-24T18:37:36.262Z,11.40
2023-03-24T18:40:07.079Z,11.50
2023-03-24T18:42:33.813Z,11.40
2023-03-24T18:45:00.672Z,11.40
2023-03-24T18:47:28.690Z,11.30
2023-03-24T18:49:55.437Z,11.30
2023-03-24T18:52:22.166Z,11.30
2023-03-24T18:54:49.237Z,11.30
2023-03-24T18:57:16.567Z,11.20
2023-03-24T18:59:43.196Z,11.30
2023-03-24T19:02:11.238Z,11.20
2023-03-24T19:04:38.191Z,11.10
2023-03-24T19:07:08.193Z,11.20
2023-03-24T19:09:35.011Z,11.20
2023-03-24T19:12:01.680Z,11.30
2023-03-24T19:14:28.633Z,11.30
2023-03-24T19:16:57.278Z,11.30
2023-03-24T19:19:24.597Z,11.30
2023-03-24T19:21:51.404Z,11.30
2023-03-24T19:24:18.060Z,11.20
2023-03-24T19:26:44.697Z,11.20
2023-03-24T19:29:11.364Z,11.30
2023-03-24T19:31:38.055Z,11.20
2023-03-24T19:34:04.723Z,11.20
2023-03-24T19:36:31.421Z,11.20
2023-03-24T19:38:58.173Z,11.10
2023-03-24T19:41:26.393Z,11.10
2023-03-24T19:43:53.275Z,11.10
2023-03-24T19:46:21.556Z,11.10
2023-03-24T19:48:48.367Z,11.10
2023-03-24T19:51:15.351Z,11.10
2023-03-24T19:53:42.066Z,11.00
2023-03-24T19:56:08.799Z,11.00
2023-03-24T19:58:35.622Z,11.00
2023-03-24T20:01:02.488Z,10.90
2023-03-24T20:03:29.284Z,10.90
2023-03-24T20:05:56.162Z,10.90
2023-03-24T20:08:23.869Z,10.80
2023-03-24T20:10:50.579Z,10.80
2023-03-24T20:13:17.266Z,10.80
2023-03-24T20:15:45.597Z,10.70
2023-03-24T20:18:12.322Z,10.70
2023-03-24T20:20:39.460Z,10.60
2023-03-24T20:23:06.543Z,10.70
2023-03-24T20:25:33.255Z,10.60
2023-03-24T20:27:59.873Z,10.60
2023-03-24T20:30:28.228Z,10.50
2023-03-24T20:32:56.331Z,10.50
2023-03-24T20:35:23.441Z,10.60
2023-03-24T20:37:50.273Z,10.40
2023-03-24T20:40:18.503Z,10.40
2023-03-24T20:42:45.149Z,10.40
2023-03-24T20:45:11.852Z,10.40
2023-03-24T20:47:38.537Z,10.40
2023-03-24T20:50:06.189Z,10.40
2023-03-24T20:52:33.060Z,10.40
2023-03-24T20:55:01.450Z,10.40
2023-03-24T20:57:30.120Z,10.40
2023-03-24T20:59:57.025Z,10.40
2023-03-24T21:02:23.785Z,10.30
2023-03-24T21:04:50.460Z,10.30
2023-03-24T21:07:17.313Z,10.30
2023-03-24T21:09:44.079Z,10.30
2023-03-24T21:12:10.858Z,10.30
2023-03-24T21:14:37.717Z,10.20
2023-03-24T21:17:04.493Z,10.10
2023-03-24T21:19:32.131Z,10.10
2023-03-24T21:21:59.388Z,10.00
2023-03-24T21:24:28.179Z,10.10
2023-03-24T21:26:57.103Z,10.00
2023-03-24T21:29:24.221Z,10.00
2023-03-24T21:31:51.485Z,9.90
2023-03-24T21:34:18.204Z,9.90
2023-03-24T21:36:46.155Z,9.90
2023-03-24T21:39:12.945Z,9.80
2023-03-24T21:41:39.899Z,9.90
2023-03-24T21:44:07.917Z,9.90
2023-03-24T21:46:34.834Z,9.90
2023-03-24T21:49:01.532Z,10.00
2023-03-24T21:51:36.631Z,10.00
2023-03-24T21:54:04.643Z,10.10
2023-03-24T21:56:32.413Z,10.10
2023-03-24T21:58:59.540Z,10.10
2023-03-24T22:01:26.388Z,10.20
2023-03-24T22:03:58.797Z,10.30
2023-03-24T22:06:29.234Z,10.30
2023-03-24T22:08:58.577Z,10.40
2023-03-24T22:11:25.861Z,10.50
2023-03-24T22:13:52.689Z,10.70
2023-03-24T22:16:19.465Z,10.70
2023-03-24T22:18:47.215Z,10.80
2023-03-24T22:21:14.309Z,10.70
2023-03-24T22:23:42.712Z,10.80
2023-03-24T22:26:11.341Z,10.70
2023-03-24T22:28:38.164Z,10.70
2023-03-24T22:31:08.812Z,10.70
2023-03-24T22:33:35.866Z,10.70
2023-03-24T22:36:03.052Z,10.70
2023-03-24T22:38:30.546Z,10.70
2023-03-24T22:40:57.748Z,10.70
2023-03-24T22:43:24.628Z,10.70
2023-03-24T22:45:51.520Z,10.70
2023-03-24T22:48:18.531Z,10.70
2023-03-24T22:50:45.173Z,10.60
2023-03-24T22:53:12.371Z,10.70
2023-03-24T22:55:39.221Z,10.60
2023-03-24T22:58:05.980Z,10.60
2023-03-24T23:00:32.861Z,10.60
2023-03-24T23:02:59.616Z,10.70
2023-03-24T23:05:26.430Z,10.70
2023-03-24T23:07:53.160Z,10.70
2023-03-24T23:10:19.881Z,10.70
2023-03-24T23:12:46.579Z,10.70
2023-03-24T23:15:14.104Z,10.60
2023-03-24T23:17:42.592Z,10.70
2023-03-24T23:20:10.605Z,10.70
2023-03-24T23:22:38.361Z,10.60
2023-03-24T23:25:05.866Z,10.60
2023-03-24T23:27:33.401Z,10.40
2023-03-24T23:30:00.060Z,10.10
2023-03-24T23:32:26.757Z,9.90
2023-03-24T23:34:53.898Z,9.80
2023-03-24T23:37:20.730Z,9.70
2023-03-24T23:39:50.250Z,9.70
2023-03-24T23:42:17.234Z,9.70
2023-03-24T23:44:43.871Z,9.60
2023-03-24T23:47:10.533Z,9.60
2023-03-24T23:49:37.229Z,9.60
2023-03-24T23:52:03.956Z,9.70
2023-03-24T23:54:31.166Z,9.70
2023-03-24T23:56:57.855Z,9.70
2023-03-24T23:59:24.502Z,9.70
